x

South Hatteras - 225 South Of Cape Hatteras (41002) Wave Buoy

3:50 - Sat 31st Jan 2015 All times are EST. -5 hours from GMT.

  • Sig Wave height 9.5ft
  • Swell Direction
  • Peak Period 10s
  • Average Period 7s
  • Wind
    20mph, 27mph gusts
  • Sea Temp 69°f
  • Air Temp 54°f
  • Sea Pressure 1025.2mb
  • South Hatteras - 225 South Of Cape Hatteras
  • South Hatteras - 225 South Of Cape Hatteras

More Historic Weather Station data

Upgrade to MSW Pro to gain access to the past 30 days of data for over 8000 Wavebouys and Weather Stations around the globe.

Join Pro

Comparision Forecast

View Surf forecast
   
sam. 01/31 3:50 9.5ft 10s 7s 20 27 mph 1025.2mb 69f 54f
2:50 10ft 9s 7s 20 27 mph 1025mb 69f 54f
1:50 12ft 9s 7s 22 29 mph 1024.6mb 69f 54f
12:50 12ft 9s 7s 22 29 mph 1024.5mb 69f 54f
11:50 12ft 9s 7s 20 31 mph 1025.3mb 69f 54f
10:50 12.5ft 9s 7s 22 29 mph 1025.1mb 69f 53f
9:50 11.5ft 9s 7s 25 31 mph 1024.4mb 69f 53f
8:50 14ft 9s 7s 22 27 mph 1023.8mb 69f 53f
7:50 13ft 9s 7s 25 34 mph 1023mb 70f 53f
6:50 14.5ft 9s 8s 25 34 mph 1022.3mb 71f 53f
5:50 13.5ft 9s 7s 25 34 mph 1021.5mb 71f 54f
4:50 14ft 9s 7s 25 36 mph 1021mb 71f 53f
3:50 14ft 10s 7s 27 36 mph 1020.7mb 71f 55f
2:50 13ft 9s 7s 27 38 mph 1020.1mb 71f 56f
1:50 13ft 9s 7s 27 36 mph 1019.6mb 71f 57f
12:50 12.5ft 9s 7s 29 38 mph 1019.5mb 71f 57f
ven. 01/30 11:50 13ft 9s 7s 27 34 mph 1019.1mb 71f 58f
10:50 12ft 8s 7s 27 34 mph 1019mb 71f 58f
9:50 12ft 8s 7s 27 36 mph 1018.6mb 71f 58f
8:50 12.5ft 9s 7s 27 34 mph 1018.4mb 71f 59f
7:50 11.5ft 9s 7s 29 36 mph 1017.6mb 71f 59f
6:50 13ft 9s 7s 27 36 mph 1016.8mb 71f 59f
5:50 13ft 9s 7s 31 36 mph 1015.6mb 71f 60f
4:50 13ft 9s 7s 31 40 mph 1014.4mb 71f 62f
3:50 14ft 8s 7s 34 43 mph 1013.3mb 72f 63f
2:50 12.5ft 8s 7s 34 43 mph 1012mb 72f 65f
1:50 12.5ft 8s 7s 29 34 mph 1012mb 72f 63f
12:50 10ft 7s 6s 38 45 mph 1011.4mb 72f 68f
11:50 8ft 7s 5s 27 31 mph 1012.9mb 72f 68f
10:50 7.5ft 6s 5s 27 34 mph 1014.7mb 72f 66f
9:50 7ft 6s 5s 31 36 mph 1015.2mb 72f 67f
8:50 5.5ft 5s 5s 29 36 mph 1015.8mb 72f 68f
7:50 5ft 5s 4s 27 34 mph 1016.6mb 72f 67f
6:50 4.5ft 10s 4s 25 31 mph 1017.3mb 71f 66f
5:50 4.5ft 9s 5s 22 29 mph 1017.6mb 71f 65f
4:50 4.5ft 10s 5s 20 27 mph 1018.8mb 71f 64f
3:50 4ft 9s 5s 16 22 mph 1020.2mb 71f 64f
2:50 4.5ft 10s 6s 18 25 mph 1021.4mb 72f 63f
1:50 4.5ft 8s 6s 16 22 mph 1021.9mb 72f 62f
12:50 5ft 10s 7s 13 18 mph 1022.3mb 72f 60f
jeu. 01/29 11:50 5ft 9s 7s 13 18 mph 1022.8mb 72f 60f
10:50 5.5ft 9s 7s 9 16 mph 1023.6mb 71f 59f
9:50 5.5ft 10s 7s 9 16 mph 1024.1mb 72f 59f
8:50 5.5ft 10s 7s 4 11 mph 1024.4mb 72f 58f
7:50 6ft 9s 7s 9 11 mph 1024.7mb 72f 58f
6:50 6ft 10s 7s 7 9 mph 1024.9mb 72f 58f
5:50 6ft 8s 7s 4 7 mph 1024.8mb 72f 57f
4:50 6ft 9s  -  4 9 mph 1024.6mb 72f 57f
3:50 6ft 9s 6s 7 11 mph 1024.2mb 72f 57f
2:50 6ft 8s 6s 9 11 mph 1024.1mb 72f 57f
1:50 7ft 11s 7s 11 16 mph 1024.7mb 72f 57f
12:50 7ft 8s 7s 13 18 mph 1025.5mb 72f 57f
11:50 8ft 10s 7s 11 18 mph 1026.5mb 72f 56f
10:50 7.5ft 11s 7s 13 20 mph 1027.1mb 72f 56f
9:50 7.5ft 9s 7s 13 20 mph 1027.2mb 72f 56f
8:50 8ft 10s 7s 13 18 mph 1026.3mb 72f 56f
7:50 9ft 10s 7s 13 20 mph 1025.6mb 72f 55f
6:50 8.5ft 9s 7s 18 25 mph 1025mb 72f 55f
5:50 9ft 11s 7s 16 25 mph 1024.5mb 72f 55f
4:50 8.5ft 8s 7s 18 25 mph 1024mb 72f 56f
3:50 10ft 9s 7s 18 27 mph 1023.9mb 72f 56f
2:50 9.5ft 9s 7s 20 25 mph 1024mb 72f 56f
1:50 10ft 8s 7s 20 27 mph 1023.6mb 72f 56f
12:50 10.5ft 8s 7s 22 27 mph 1023.3mb 71f 56f
mer. 01/28 11:50 10ft 9s 7s 20 27 mph 1023.3mb 71f 56f
10:50 11ft 8s 7s 25 31 mph 1023mb 71f 56f
9:50 11ft 9s 7s 22 31 mph 1022.9mb 71f 56f
8:50 11.5ft 8s 7s 25 29 mph 1022.2mb 72f 56f
7:50 11ft 8s 7s 25 31 mph 1021.3mb 72f 57f
6:50 10.5ft 8s 7s 27 34 mph 1020.2mb 72f 56f
5:50 10ft 7s 7s 27 34 mph 1019.2mb 72f 56f
4:50 10.5ft 12s 7s 25 31 mph 1018.5mb 72f 56f
3:50 10ft 11s 7s 25 31 mph 1017.7mb 72f 56f
2:50 10ft 8s 7s 25 29 mph 1017.1mb 72f 57f
1:50 10.5ft 8s 7s 25 31 mph 1016.9mb 72f 56f
12:50 10ft 8s 7s 27 36 mph 1016.6mb 72f 56f
11:50 11ft 13s 7s 22 29 mph 1017.1mb 71f 56f
10:50 10.5ft 8s 7s 20 29 mph 1017.1mb 71f 57f
9:50 10.5ft 8s 7s 22 29 mph 1016.7mb 71f 57f
8:50 10.5ft 8s 7s 25 34 mph 1016mb 71f 57f
7:50 11ft 14s 7s 25 31 mph 1015.2mb 71f 57f
6:50 12ft 13s 7s 22 31 mph 1014.4mb 71f 57f
5:50 12.5ft 13s 8s 27 36 mph 1013.4mb 71f 56f
4:50 11.5ft 14s 7s 27 34 mph 1012.3mb 71f 57f
3:50 12ft 13s 8s 18 27 mph 1012.4mb 71f 54f
2:50 13ft 13s 8s 25 34 mph 1012.2mb 71f 53f
1:50 11ft 12s 7s 16 29 mph 1012mb 71f 53f
12:50 13.5ft 9s 8s 22 34 mph 1011.3mb 71f 55f
mar. 01/27 11:50 13ft 8s 7s 27 36 mph 1011mb 71f 56f
10:50 13ft 8s 7s 27 36 mph 1010.5mb 71f 57f
9:50 13.5ft 8s 7s 29 38 mph 1009.9mb 71f 57f